Terminal Aerodrome Forecast
Issued by NWS Wichita, KS

Home | Current Version | Previous Version | Text Only | Print | Product List | Glossary Off
Versions: 1 2 3 4 5 6 7 8 9 10 11 12 13

995
FTUS43 KICT 292327
TAFICT
TAF
KICT 292327Z 3000/3024 30010KT P6SM FEW060
     FM300200 30009KT P6SM BKN060
     FM301100 30009KT P6SM SCT100
     FM301600 30013KT P6SM FEW200=

USA.gov is the U.S. government's official web portal to all federal, state and local government web resources and services.